Time;durP1;ratioP1;P1;durP2;ratioP2;P2;SDS_P1;SDS_P2;PMS_P1;PMS_P2;Temp;Humidity;BMP_temperature;BMP_pressure;BME280_temperature;BME280_humidity;BME280_pressure;Samples;Min_cycle;Max_cycle;Signal;HPM_P1;HPM_P2
2022/07/04 00:00:51;;;;;;;4.43;1.60;;;12.60;99.90;;;;;;4979726;28;20030;-90
2022/07/04 00:03:20;;;;;;;5.40;1.63;;;12.60;99.90;;;;;;4979885;28;20037;-90
2022/07/04 00:05:45;;;;;;;21.92;3.92;;;12.70;99.90;;;;;;4979483;28;20157;-92
2022/07/04 00:08:11;;;;;;;4.70;1.50;;;12.70;99.90;;;;;;4979753;28;20120;-92
2022/07/04 00:10:39;;;;;;;2.15;1.38;;;12.60;99.90;;;;;;4979780;28;20100;-90
2022/07/04 00:13:08;;;;;;;4.88;2.05;;;12.60;99.90;;;;;;4979787;28;20192;-90
2022/07/04 00:15:34;;;;;;;3.42;1.55;;;12.60;99.90;;;;;;4979624;28;20034;-90
2022/07/04 00:18:02;;;;;;;3.47;1.50;;;12.70;99.90;;;;;;4978917;28;20032;-90
2022/07/04 00:20:28;;;;;;;6.05;1.30;;;12.70;99.90;;;;;;4978757;28;20026;-90
2022/07/04 00:22:54;;;;;;;2.00;1.17;;;12.80;99.90;;;;;;4979271;28;20134;-90
2022/07/04 00:25:20;;;;;;;2.72;1.17;;;12.80;99.90;;;;;;4965936;28;20034;-90
2022/07/04 00:27:48;;;;;;;5.88;1.73;;;12.70;99.90;;;;;;4981921;28;20486;-89
2022/07/04 00:30:17;;;;;;;4.82;1.70;;;12.80;99.90;;;;;;4979717;28;20133;-89
2022/07/04 00:32:43;;;;;;;3.35;1.50;;;12.80;99.90;;;;;;4979523;28;20022;-90
2022/07/04 00:35:09;;;;;;;4.40;1.30;;;12.80;99.90;;;;;;4980520;28;20106;-90
2022/07/04 00:37:34;;;;;;;2.92;1.30;;;12.80;99.90;;;;;;4981501;28;20074;-91
2022/07/04 00:40:00;;;;;;;2.58;1.00;;;12.80;99.90;;;;;;4982465;28;20037;-91
2022/07/04 00:42:26;;;;;;;3.33;1.38;;;12.80;99.90;;;;;;4984649;28;20062;-92
2022/07/04 00:44:52;;;;;;;4.32;1.05;;;12.80;99.90;;;;;;4993855;28;20027;-90
2022/07/04 00:47:17;;;;;;;4.15;0.93;;;12.80;99.90;;;;;;4993832;28;20030;-91
2022/07/04 00:49:43;;;;;;;1.95;1.23;;;12.80;99.90;;;;;;4998931;28;20073;-90
2022/07/04 00:52:09;;;;;;;3.65;1.45;;;12.80;99.90;;;;;;5001549;28;20035;-90
2022/07/04 00:54:35;;;;;;;4.97;1.00;;;12.70;99.90;;;;;;5000714;28;20022;-91
2022/07/04 00:57:01;;;;;;;2.75;0.90;;;12.70;99.90;;;;;;4985928;28;20045;-91
2022/07/04 00:59:27;;;;;;;4.57;1.08;;;12.70;99.90;;;;;;4983547;28;20034;-90
2022/07/04 01:01:52;;;;;;;2.55;0.90;;;12.60;99.90;;;;;;4983373;28;20049;-90
2022/07/04 01:04:18;;;;;;;1.70;0.90;;;12.60;99.90;;;;;;4996550;28;20026;-91
2022/07/04 01:06:45;;;;;;;0.93;0.80;;;12.60;99.90;;;;;;4984056;28;20147;-91
2022/07/04 01:09:12;;;;;;;3.67;1.13;;;12.60;99.90;;;;;;4982750;28;20047;-91
2022/07/04 01:11:38;;;;;;;3.08;1.08;;;12.60;99.90;;;;;;4981071;28;20034;-90
2022/07/04 01:14:06;;;;;;;2.00;1.08;;;12.60;99.90;;;;;;4980641;28;20546;-91
2022/07/04 01:16:32;;;;;;;4.20;1.17;;;12.50;99.90;;;;;;4979959;28;20030;-91
2022/07/04 01:18:58;;;;;;;4.95;1.83;;;12.60;99.90;;;;;;4979279;28;20026;-89
2022/07/04 01:21:23;;;;;;;2.95;1.00;;;12.50;99.90;;;;;;4980196;28;20490;-90
2022/07/04 01:23:49;;;;;;;5.18;0.90;;;12.50;99.90;;;;;;4979128;28;20081;-91
2022/07/04 01:26:15;;;;;;;2.60;0.90;;;12.50;99.90;;;;;;4979422;28;20022;-91
2022/07/04 01:28:41;;;;;;;4.43;0.88;;;12.50;99.90;;;;;;4980480;28;20034;-92
2022/07/04 01:31:06;;;;;;;2.72;0.98;;;12.50;99.90;;;;;;4983296;28;20045;-91
2022/07/04 01:33:32;;;;;;;0.65;0.65;;;12.50;99.90;;;;;;4978078;28;20069;-90
2022/07/04 01:35:58;;;;;;;2.85;0.60;;;12.50;99.90;;;;;;4979838;28;20037;-91
2022/07/04 01:38:24;;;;;;;2.13;1.00;;;12.50;99.90;;;;;;4978658;28;20504;-90
2022/07/04 01:40:50;;;;;;;4.78;1.08;;;12.50;99.90;;;;;;4978146;28;20030;-91
2022/07/04 01:43:16;;;;;;;1.77;0.80;;;12.50;99.90;;;;;;4995295;28;20420;-91
2022/07/04 01:45:41;;;;;;;2.45;0.80;;;12.50;99.90;;;;;;4977937;28;20030;-91
2022/07/04 01:48:09;;;;;;;3.22;1.20;;;12.50;99.90;;;;;;4978220;28;20023;-91
2022/07/04 01:50:35;;;;;;;4.93;1.00;;;12.50;99.90;;;;;;4978689;28;20038;-92
2022/07/04 01:53:01;;;;;;;1.70;0.75;;;12.50;99.90;;;;;;4978012;28;20057;-90
2022/07/04 01:55:28;;;;;;;3.60;1.10;;;12.50;99.90;;;;;;4978353;28;20415;-89
2022/07/04 01:57:53;;;;;;;2.78;1.00;;;12.50;99.90;;;;;;4978654;28;20118;-90
2022/07/04 02:03:03;;;;;;;3.65;0.90;;;12.50;99.90;;;;;;4994988;28;20517;-90
2022/07/04 02:05:29;;;;;;;5.03;1.10;;;12.60;99.90;;;;;;4976945;28;20030;-90
2022/07/04 02:07:55;;;;;;;2.47;1.00;;;12.60;99.90;;;;;;4976866;28;20427;-90
2022/07/04 02:10:21;;;;;;;2.15;0.95;;;12.60;99.90;;;;;;4977129;28;20518;-90
2022/07/04 02:13:01;;;;;;;12.50;1.20;;;12.60;99.90;;;;;;4977222;28;20669;-89
2022/07/04 02:15:36;;;;;;;4.35;0.90;;;12.60;99.90;;;;;;4977991;28;20031;-89
2022/07/04 02:18:03;;;;;;;1.42;0.70;;;12.60;99.90;;;;;;4980280;28;20526;-90
2022/07/04 02:20:29;;;;;;;2.85;0.70;;;12.60;99.90;;;;;;4978444;28;20030;-91
2022/07/04 02:22:55;;;;;;;3.10;1.00;;;12.60;99.90;;;;;;4980395;28;20179;-90
2022/07/04 02:25:21;;;;;;;1.02;0.90;;;12.60;99.90;;;;;;4984862;28;20042;-89
2022/07/04 02:27:47;;;;;;;1.17;0.70;;;12.60;99.90;;;;;;4984705;28;20033;-90
2022/07/04 02:30:13;;;;;;;3.17;1.20;;;12.60;99.90;;;;;;4986621;28;20034;-89
2022/07/04 02:32:39;;;;;;;2.85;0.90;;;12.60;99.90;;;;;;4979749;28;20034;-91
2022/07/04 02:35:06;;;;;;;1.98;0.93;;;12.60;99.90;;;;;;4978882;28;20096;-90
2022/07/04 02:37:31;;;;;;;2.97;0.85;;;12.60;99.90;;;;;;4978396;28;20507;-91
2022/07/04 02:39:57;;;;;;;3.20;1.05;;;12.60;99.90;;;;;;4994759;28;20034;-89
2022/07/04 02:42:23;;;;;;;4.35;1.23;;;12.60;99.90;;;;;;4977243;28;20083;-88
2022/07/04 02:44:49;;;;;;;4.70;0.80;;;12.60;99.90;;;;;;4973839;28;20023;-91
2022/07/04 02:47:15;;;;;;;1.92;0.90;;;12.50;99.90;;;;;;4973484;28;20112;-89
2022/07/04 02:49:41;;;;;;;2.08;0.88;;;12.50;99.90;;;;;;4975679;28;20034;-93
2022/07/04 02:52:07;;;;;;;2.45;1.00;;;12.50;99.90;;;;;;4976602;28;20037;-91
2022/07/04 02:54:32;;;;;;;2.15;0.90;;;12.50;99.90;;;;;;4976676;28;20033;-89
2022/07/04 02:56:59;;;;;;;3.30;0.75;;;12.40;99.90;;;;;;4993660;28;20035;-91
2022/07/04 02:59:24;;;;;;;3.85;0.93;;;12.40;99.90;;;;;;4976676;28;20028;-90
2022/07/04 03:01:50;;;;;;;3.55;0.80;;;12.40;99.90;;;;;;4976852;28;20122;-89
2022/07/04 03:04:16;;;;;;;3.78;1.00;;;12.40;99.90;;;;;;4976432;28;20038;-89
2022/07/04 03:06:42;;;;;;;3.13;0.80;;;12.30;99.90;;;;;;4976624;28;20033;-89
2022/07/04 03:09:09;;;;;;;3.65;1.20;;;12.30;99.90;;;;;;4976145;28;20129;-88
2022/07/04 03:11:35;;;;;;;4.65;1.10;;;12.30;99.90;;;;;;4976421;28;20040;-91
2022/07/04 03:14:01;;;;;;;4.28;1.10;;;12.30;99.90;;;;;;4976296;28;20034;-89
2022/07/04 03:16:27;;;;;;;6.70;0.90;;;12.30;99.90;;;;;;4976183;28;20132;-90
2022/07/04 03:18:52;;;;;;;6.00;1.45;;;12.20;99.90;;;;;;4976638;28;20018;-89
2022/07/04 03:21:18;;;;;;;2.47;0.85;;;12.20;99.90;;;;;;4976823;28;20543;-89
2022/07/04 03:23:57;;;;;;;3.88;0.95;;;12.20;99.90;;;;;;4976751;28;20034;-90
2022/07/04 03:26:26;;;;;;;3.25;1.23;;;12.10;99.90;;;;;;4992370;28;20037;-89
2022/07/04 03:28:52;;;;;;;2.67;1.00;;;12.10;99.90;;;;;;4976036;28;20026;-91
2022/07/04 03:31:18;;;;;;;8.55;1.20;;;12.10;99.90;;;;;;4976749;28;20502;-91
2022/07/04 03:33:44;;;;;;;1.20;0.70;;;12.10;99.90;;;;;;4978771;28;20030;-90
2022/07/04 03:36:10;;;;;;;1.15;0.80;;;12.10;99.90;;;;;;4980462;28;20546;-91
2022/07/04 03:38:36;;;;;;;4.18;1.20;;;12.00;99.90;;;;;;4980596;28;20472;-91
2022/07/04 03:41:02;;;;;;;2.55;1.00;;;12.00;99.90;;;;;;4983127;28;20031;-91
2022/07/04 03:43:27;;;;;;;2.95;1.02;;;12.00;99.90;;;;;;4988094;28;20022;-90
2022/07/04 03:45:53;;;;;;;2.47;1.05;;;12.00;99.90;;;;;;4988913;28;20066;-90
2022/07/04 03:48:20;;;;;;;6.55;1.35;;;12.00;99.90;;;;;;4980059;28;20046;-91
2022/07/04 03:50:46;;;;;;;4.90;1.35;;;12.00;99.90;;;;;;4979679;28;20042;-90
2022/07/04 03:53:12;;;;;;;4.32;1.60;;;12.00;99.90;;;;;;4979525;28;20030;-91
2022/07/04 03:55:38;;;;;;;4.00;1.35;;;12.00;99.90;;;;;;4979367;28;20030;-92
2022/07/04 03:58:05;;;;;;;3.75;1.50;;;12.00;99.90;;;;;;4980379;28;20109;-91
2022/07/04 04:00:31;;;;;;;8.10;1.50;;;12.10;99.90;;;;;;4980759;28;20034;-90
2022/07/04 04:02:57;;;;;;;5.45;1.60;;;12.10;99.90;;;;;;4980044;28;20100;-90
2022/07/04 04:05:27;;;;;;;6.32;2.00;;;12.10;99.90;;;;;;4979148;28;20526;-91
2022/07/04 04:07:58;;;;;;;6.40;2.30;;;12.10;99.90;;;;;;4983628;28;20030;-90
2022/07/04 04:10:25;;;;;;;2.03;1.90;;;12.20;99.90;;;;;;4983682;28;20137;-91
2022/07/04 04:12:51;;;;;;;6.25;2.45;;;12.20;99.90;;;;;;4998513;28;20040;-91
2022/07/04 04:15:17;;;;;;;3.45;2.40;;;12.20;99.90;;;;;;4980046;28;20539;-90
2022/07/04 04:17:42;;;;;;;2.58;2.25;;;12.20;99.90;;;;;;4979578;28;20030;-91
2022/07/04 04:20:09;;;;;;;6.75;3.40;;;12.30;99.90;;;;;;4981177;28;20431;-90
2022/07/04 04:22:35;;;;;;;3.08;2.30;;;12.30;99.90;;;;;;4981637;28;20026;-91
2022/07/04 04:25:01;;;;;;;6.80;2.05;;;12.30;99.90;;;;;;4979579;28;20160;-91
2022/07/04 04:27:27;;;;;;;2.58;1.92;;;12.30;99.90;;;;;;4979601;28;20030;-90
2022/07/04 04:29:52;;;;;;;3.65;2.38;;;12.30;99.90;;;;;;4978767;28;20026;-91
2022/07/04 04:32:19;;;;;;;5.65;2.20;;;12.30;99.90;;;;;;4997173;28;20034;-90
2022/07/04 04:34:44;;;;;;;3.83;2.05;;;12.30;99.90;;;;;;4979961;28;20045;-91
2022/07/04 04:37:10;;;;;;;7.97;2.00;;;12.40;99.90;;;;;;4980247;28;20033;-90
2022/07/04 04:39:36;;;;;;;3.25;1.90;;;12.30;99.90;;;;;;4980158;28;20027;-89
2022/07/04 04:42:02;;;;;;;5.78;2.10;;;12.40;99.90;;;;;;4980817;28;20369;-90
2022/07/04 04:44:27;;;;;;;5.75;1.90;;;12.40;99.90;;;;;;4979013;28;20121;-90
2022/07/04 04:46:53;;;;;;;4.75;1.75;;;12.30;99.90;;;;;;4980297;28;20453;-91
2022/07/04 04:49:19;;;;;;;2.45;1.50;;;12.40;99.90;;;;;;4997726;28;20034;-92
2022/07/04 04:51:44;;;;;;;5.97;1.92;;;12.30;99.90;;;;;;4981608;28;20137;-90
2022/07/04 04:54:10;;;;;;;8.27;2.03;;;12.40;99.90;;;;;;4981905;28;20550;-91
2022/07/04 04:56:36;;;;;;;6.28;2.17;;;12.40;99.90;;;;;;4988676;28;20089;-91
2022/07/04 04:59:01;;;;;;;5.47;2.10;;;12.40;99.90;;;;;;4991103;28;20034;-91
2022/07/04 05:01:27;;;;;;;4.50;1.70;;;12.40;99.90;;;;;;4994452;28;20018;-90
2022/07/04 05:03:53;;;;;;;4.32;1.70;;;12.40;99.90;;;;;;5002813;28;20014;-89
2022/07/04 05:06:19;;;;;;;5.15;1.77;;;12.40;99.90;;;;;;5002519;28;20026;-89
2022/07/04 05:08:45;;;;;;;7.63;2.08;;;12.40;99.90;;;;;;4993067;28;20503;-91
2022/07/04 05:11:10;;;;;;;8.32;1.65;;;12.50;99.90;;;;;;4983782;28;20065;-92
2022/07/04 05:13:36;;;;;;;4.60;1.45;;;12.50;99.90;;;;;;4982953;28;20045;-92
2022/07/04 05:16:03;;;;;;;2.83;1.50;;;12.50;99.90;;;;;;4982240;28;20050;-91
2022/07/04 05:18:28;;;;;;;8.02;1.75;;;12.50;99.90;;;;;;4981017;28;20033;-91
2022/07/04 05:20:54;;;;;;;6.93;1.83;;;12.60;99.90;;;;;;4980206;28;20117;-90
2022/07/04 05:23:20;;;;;;;5.32;1.90;;;12.60;99.90;;;;;;4979685;28;20026;-91
2022/07/04 05:25:47;;;;;;;5.30;1.42;;;12.60;99.90;;;;;;4987010;28;20034;-90
2022/07/04 05:28:13;;;;;;;6.75;1.65;;;12.60;99.90;;;;;;4986036;28;20026;-90
2022/07/04 05:30:39;;;;;;;6.57;2.38;;;12.70;99.90;;;;;;4980306;28;20042;-91
2022/07/04 05:33:04;;;;;;;4.07;1.80;;;12.70;99.90;;;;;;4978913;28;20152;-90
2022/07/04 05:35:31;;;;;;;3.05;1.63;;;12.70;99.90;;;;;;4978364;28;20310;-90
2022/07/04 05:37:58;;;;;;;6.05;1.83;;;12.70;99.90;;;;;;4977581;28;20032;-90
2022/07/04 05:40:24;;;;;;;6.85;1.58;;;12.70;99.90;;;;;;4977733;28;20065;-90
2022/07/04 05:42:49;;;;;;;3.20;1.42;;;12.70;99.90;;;;;;4978365;28;20031;-89
2022/07/04 05:45:15;;;;;;;6.10;1.60;;;12.70;99.90;;;;;;4978112;28;20022;-90
2022/07/04 05:47:42;;;;;;;3.53;1.70;;;12.70;99.90;;;;;;4977961;28;20113;-90
2022/07/04 05:50:09;;;;;;;10.52;2.13;;;12.70;99.90;;;;;;4995678;28;20037;-89
2022/07/04 05:52:35;;;;;;;3.05;1.73;;;12.70;99.90;;;;;;4977957;28;20031;-90
2022/07/04 05:55:00;;;;;;;2.63;1.77;;;12.70;99.90;;;;;;4994959;28;20108;-89
2022/07/04 05:57:27;;;;;;;6.70;2.10;;;12.70;99.90;;;;;;4996099;28;20060;-90
2022/07/04 05:59:53;;;;;;;4.72;2.00;;;12.70;99.90;;;;;;5016502;28;20037;-90
2022/07/04 06:02:19;;;;;;;5.75;2.50;;;12.70;99.90;;;;;;4998531;28;20064;-91
2022/07/04 06:04:45;;;;;;;3.05;2.08;;;12.70;99.90;;;;;;4997377;28;20387;-90
2022/07/04 06:07:10;;;;;;;3.70;2.83;;;12.70;99.90;;;;;;4997295;28;20021;-89
2022/07/04 06:09:36;;;;;;;7.28;3.60;;;12.70;99.90;;;;;;4997100;28;20132;-89
2022/07/04 06:12:07;;;;;;;5.55;2.90;;;12.70;99.90;;;;;;4977513;28;20102;-89
2022/07/04 06:14:32;;;;;;;;;;;12.70;99.90;;;;;;4992334;28;20363;-90
2022/07/04 06:16:58;;;;;;;6.40;3.15;;;12.70;99.90;;;;;;5003117;28;19916;-89
2022/07/04 06:19:24;;;;;;;5.53;2.63;;;12.70;99.90;;;;;;5017860;28;20110;-90
2022/07/04 06:21:50;;;;;;;5.03;2.47;;;12.60;99.90;;;;;;5013681;28;20026;-91
2022/07/04 06:24:15;;;;;;;7.20;3.08;;;12.60;99.90;;;;;;5010054;28;20013;-91
2022/07/04 06:26:42;;;;;;;3.85;2.03;;;12.60;99.90;;;;;;5017258;28;20041;-90
2022/07/04 06:29:09;;;;;;;4.47;2.72;;;12.70;99.90;;;;;;5001012;28;20029;-89
2022/07/04 06:31:35;;;;;;;3.17;2.50;;;12.70;99.90;;;;;;4996280;28;20025;-89
2022/07/04 06:36:47;;;;;;;3.08;1.70;;;12.80;99.90;;;;;;5010190;28;20123;-90
2022/07/04 06:39:13;;;;;;;4.32;1.60;;;12.80;99.90;;;;;;4995370;28;20065;-90
2022/07/04 06:41:39;;;;;;;2.03;1.15;;;12.80;99.90;;;;;;4995792;28;20050;-89
2022/07/04 06:44:04;;;;;;;6.75;1.42;;;12.80;99.90;;;;;;4995450;28;20029;-89
2022/07/04 06:46:32;;;;;;;5.40;1.40;;;12.80;99.90;;;;;;5012843;28;20013;-89
2022/07/04 06:48:57;;;;;;;1.80;0.68;;;12.80;99.90;;;;;;4996774;28;20030;-90
2022/07/04 06:51:23;;;;;;;2.70;0.70;;;12.80;99.90;;;;;;4996234;28;20061;-88
2022/07/04 06:53:51;;;;;;;1.98;0.85;;;12.80;99.90;;;;;;4997169;28;20029;-90
2022/07/04 06:56:17;;;;;;;2.30;0.60;;;12.80;99.90;;;;;;4980265;28;20026;-90
2022/07/04 06:58:43;;;;;;;3.05;0.50;;;12.90;99.90;;;;;;4963586;28;20057;-92
2022/07/04 07:01:09;;;;;;;2.05;0.70;;;12.90;99.90;;;;;;4997068;28;20068;-91
2022/07/04 07:03:35;;;;;;;4.35;0.70;;;12.90;99.90;;;;;;4996386;28;20038;-91
2022/07/04 07:06:02;;;;;;;1.45;0.70;;;12.90;99.90;;;;;;4994474;28;20125;-91
2022/07/04 07:08:30;;;;;;;1.27;0.50;;;12.90;99.90;;;;;;4994137;28;20027;-91
2022/07/04 07:11:12;;;;;;;1.60;0.60;;;12.90;99.90;;;;;;4996257;28;20517;-90
2022/07/04 07:13:43;;;;;;;3.50;0.70;;;12.90;99.90;;;;;;4997034;28;20061;-90
2022/07/04 07:16:08;;;;;;;;;;;12.90;99.90;;;;;;4982745;28;20030;-91
2022/07/04 07:18:34;;;;;;;2.03;0.57;;;13.00;99.90;;;;;;5000742;28;19916;-91
2022/07/04 07:21:00;;;;;;;3.88;0.85;;;13.00;99.90;;;;;;5001322;28;20034;-91
2022/07/04 07:23:26;;;;;;;4.40;0.93;;;13.00;99.90;;;;;;4999864;28;20026;-91
2022/07/04 07:25:51;;;;;;;4.07;0.82;;;13.10;99.90;;;;;;5001490;28;20022;-90
2022/07/04 07:28:22;;;;;;;2.00;0.80;;;13.20;99.90;;;;;;5001176;28;20041;-91
2022/07/04 07:30:48;;;;;;;1.85;0.93;;;13.20;99.90;;;;;;4997803;28;20053;-91
2022/07/04 07:33:16;;;;;;;3.75;1.05;;;13.20;99.90;;;;;;4996288;28;20032;-91
2022/07/04 07:35:42;;;;;;;1.30;0.80;;;13.30;99.90;;;;;;4999188;28;20022;-91
2022/07/04 07:38:08;;;;;;;1.33;0.80;;;13.30;99.90;;;;;;4996725;28;20034;-91
2022/07/04 07:40:34;;;;;;;7.13;1.02;;;13.30;99.90;;;;;;4996410;28;20033;-90
2022/07/04 07:43:00;;;;;;;2.10;1.10;;;13.30;99.90;;;;;;5014116;28;20059;-91
2022/07/04 07:45:26;;;;;;;5.57;0.75;;;13.40;99.90;;;;;;5007458;28;20045;-89
2022/07/04 07:47:51;;;;;;;1.92;0.75;;;13.40;99.90;;;;;;4999666;28;20084;-91
2022/07/04 07:50:17;;;;;;;3.78;0.90;;;13.40;99.90;;;;;;5006286;28;20098;-93
2022/07/04 07:52:43;;;;;;;2.10;0.65;;;13.40;99.90;;;;;;4990896;28;20393;-93
2022/07/04 07:55:09;;;;;;;1.27;0.73;;;13.50;99.90;;;;;;5018999;28;20068;-95
2022/07/04 07:57:35;;;;;;;1.55;0.77;;;13.50;99.90;;;;;;5001435;28;20021;-94
2022/07/04 08:00:01;;;;;;;1.05;0.88;;;13.60;99.90;;;;;;5000942;28;20017;-94
2022/07/04 08:05:40;;;;;;;2.50;0.80;;;13.60;99.90;;;;;;5007676;28;20052;-95
2022/07/04 08:08:07;;;;;;;1.65;0.80;;;13.70;99.90;;;;;;4988266;28;20030;-96
2022/07/04 08:10:33;;;;;;;2.42;0.60;;;13.90;99.90;;;;;;4994546;28;20452;-95
2022/07/04 08:12:59;;;;;;;3.50;0.88;;;13.90;99.90;;;;;;4997797;28;20080;-94
2022/07/04 08:15:25;;;;;;;1.00;0.70;;;14.10;99.90;;;;;;4972488;28;20117;-93
2022/07/04 08:17:53;;;;;;;2.45;0.68;;;14.20;99.90;;;;;;4998837;28;20053;-95
2022/07/04 08:20:18;;;;;;;1.85;0.90;;;14.30;99.90;;;;;;5001193;28;20081;-94
2022/07/04 08:22:44;;;;;;;2.15;0.80;;;14.30;99.90;;;;;;5019173;28;20030;-95
2022/07/04 08:25:10;;;;;;;3.50;0.75;;;14.40;99.90;;;;;;5008391;28;20026;-93
2022/07/04 08:27:37;;;;;;;5.00;0.80;;;14.50;99.90;;;;;;5001077;28;20503;-94
2022/07/04 08:30:03;;;;;;;1.33;0.82;;;14.50;99.90;;;;;;5003410;28;20060;-95
2022/07/04 08:32:30;;;;;;;0.85;0.60;;;14.50;99.90;;;;;;5000669;28;20082;-95
2022/07/04 08:34:56;;;;;;;1.38;0.40;;;14.50;99.90;;;;;;4999933;28;20026;-95
2022/07/04 08:37:21;;;;;;;2.05;0.50;;;14.50;99.90;;;;;;4999997;28;20083;-94
2022/07/04 08:39:49;;;;;;;0.73;0.60;;;14.50;99.90;;;;;;4995630;28;20077;-96
2022/07/04 08:42:19;;;;;;;1.85;0.50;;;14.40;99.90;;;;;;5000152;28;20057;-94
2022/07/04 08:45:06;;;;;;;3.63;0.63;;;14.50;99.90;;;;;;4982712;28;20071;-95
2022/07/04 08:47:38;;;;;;;2.25;0.40;;;14.60;99.90;;;;;;5004580;28;20038;-93
2022/07/04 08:50:34;;;;;;;2.55;0.30;;;14.60;99.90;;;;;;4995419;28;20078;-95
2022/07/04 08:53:21;;;;;;;1.55;0.50;;;14.60;99.90;;;;;;4991532;28;20030;-94
2022/07/04 08:58:44;;;;;;;1.55;0.57;;;14.50;99.90;;;;;;5003296;28;20053;-95
2022/07/04 09:01:14;;;;;;;0.75;0.30;;;14.50;99.90;;;;;;4999780;28;20045;-95
2022/07/04 09:03:46;;;;;;;3.25;0.52;;;14.60;99.90;;;;;;5000336;28;20037;-94
2022/07/04 09:06:14;;;;;;;1.33;0.40;;;14.80;99.90;;;;;;5004865;28;20044;-92
2022/07/04 09:08:46;;;;;;;0.63;0.30;;;15.00;99.90;;;;;;5035771;28;20079;-94
2022/07/04 09:11:13;;;;;;;1.90;0.63;;;15.10;99.90;;;;;;5010177;28;20057;-94
2022/07/04 09:13:42;;;;;;;2.42;0.60;;;15.30;99.90;;;;;;5005951;28;20132;-94
2022/07/04 09:16:08;;;;;;;3.60;0.40;;;15.40;99.90;;;;;;5012310;28;20012;-92
2022/07/04 09:18:36;;;;;;;0.88;0.45;;;15.60;99.70;;;;;;5021149;28;20010;-92
2022/07/04 09:21:08;;;;;;;2.72;0.60;;;15.80;98.30;;;;;;5008787;28;20033;-95
2022/07/04 09:23:42;;;;;;;0.77;0.40;;;16.00;96.50;;;;;;4999898;28;20033;-95
2022/07/04 09:26:11;;;;;;;2.08;0.40;;;16.20;96.30;;;;;;4999705;28;20053;-94
2022/07/04 09:28:38;;;;;;;1.65;0.50;;;16.40;96.40;;;;;;4999640;28;20087;-95
2022/07/04 09:31:15;;;;;;;2.78;0.40;;;16.50;96.10;;;;;;4999490;28;20157;-96
2022/07/04 09:33:49;;;;;;;2.25;0.40;;;16.70;95.20;;;;;;4999744;28;20037;-95
2022/07/04 09:36:17;;;;;;;1.85;0.30;;;16.70;94.80;;;;;;5005110;28;20026;-95
2022/07/04 09:38:44;;;;;;;0.80;0.40;;;16.70;94.20;;;;;;4989621;28;20066;-95
2022/07/04 09:41:29;;;;;;;3.47;0.60;;;16.60;93.90;;;;;;4999794;28;20041;-94
2022/07/04 09:44:03;;;;;;;0.88;0.38;;;16.50;93.10;;;;;;4992385;28;20034;-94
2022/07/04 09:46:29;;;;;;;1.15;0.40;;;16.30;93.20;;;;;;5004157;28;20026;-94
2022/07/04 09:48:55;;;;;;;1.83;0.60;;;16.20;93.50;;;;;;5001214;28;20086;-95
2022/07/04 09:51:37;;;;;;;1.48;0.63;;;16.00;93.90;;;;;;4970030;28;20048;-95
2022/07/04 09:54:29;;;;;;;2.42;0.50;;;16.00;94.10;;;;;;4998797;28;20033;-95
2022/07/04 09:56:57;;;;;;;0.32;0.30;;;15.90;94.50;;;;;;4988289;28;20125;-95
2022/07/04 09:59:24;;;;;;;0.95;0.57;;;15.90;94.40;;;;;;4998980;28;20072;-96
2022/07/04 10:01:50;;;;;;;2.20;0.57;;;15.90;94.30;;;;;;4998432;28;20068;-95
2022/07/04 10:04:17;;;;;;;3.38;0.70;;;15.90;93.90;;;;;;4999308;28;20116;-95
2022/07/04 10:06:45;;;;;;;2.80;0.63;;;16.00;93.40;;;;;;4998022;28;20025;-95
2022/07/04 10:09:13;;;;;;;3.30;0.60;;;16.10;93.40;;;;;;4997108;28;20120;-93
2022/07/04 10:11:40;;;;;;;2.88;0.70;;;16.20;93.50;;;;;;4997210;28;20088;-95
2022/07/04 10:14:09;;;;;;;1.00;0.47;;;16.20;93.20;;;;;;4997320;28;20029;-95
2022/07/04 10:16:38;;;;;;;5.43;0.77;;;16.20;92.70;;;;;;4997410;28;20066;-95
2022/07/04 10:19:09;;;;;;;3.90;0.75;;;16.20;92.40;;;;;;4997237;28;20022;-92
2022/07/04 10:21:35;;;;;;;4.35;1.40;;;16.20;92.80;;;;;;4998668;28;20140;-93
2022/07/04 10:24:05;;;;;;;2.08;0.73;;;16.20;92.80;;;;;;5000304;28;20026;-96
2022/07/04 10:26:31;;;;;;;4.43;0.80;;;16.20;92.40;;;;;;5019179;28;20017;-92
2022/07/04 10:28:58;;;;;;;3.67;0.80;;;16.10;92.20;;;;;;5016170;28;20033;-94
2022/07/04 10:31:27;;;;;;;6.45;1.00;;;16.10;92.60;;;;;;5008278;28;20034;-94
2022/07/04 10:33:55;;;;;;;2.92;0.93;;;16.10;93.00;;;;;;5007230;28;20037;-95
2022/07/04 10:36:22;;;;;;;3.80;1.27;;;16.10;93.20;;;;;;5019781;28;20044;-92
2022/07/04 10:38:58;;;;;;;2.20;0.50;;;16.10;92.90;;;;;;5020106;28;20033;-94
2022/07/04 10:41:30;;;;;;;5.18;0.80;;;16.00;92.40;;;;;;5013393;28;20073;-95
2022/07/04 10:43:59;;;;;;;2.10;0.80;;;16.00;92.30;;;;;;4998985;28;20026;-96
2022/07/04 10:46:35;;;;;;;3.92;0.98;;;16.00;92.50;;;;;;4998802;28;20037;-95
2022/07/04 10:49:23;;;;;;;1.98;0.85;;;16.10;92.70;;;;;;5016128;28;20025;-94
2022/07/04 10:52:13;;;;;;;1.90;0.80;;;16.10;92.70;;;;;;4998897;28;20212;-95
2022/07/04 10:54:42;;;;;;;1.58;0.68;;;16.10;92.50;;;;;;4998540;28;20037;-95
2022/07/04 10:57:15;;;;;;;3.10;1.63;;;16.10;92.20;;;;;;5016499;28;20037;-93
2022/07/04 11:00:05;;;;;;;2.45;0.57;;;16.00;91.80;;;;;;4998860;28;20076;-95
2022/07/04 11:02:41;;;;;;;3.30;1.80;;;16.00;91.30;;;;;;5015909;28;20049;-95
2022/07/04 11:05:14;;;;;;;2.95;1.10;;;16.00;91.40;;;;;;4998623;28;20176;-95
2022/07/04 11:07:46;;;;;;;2.08;0.75;;;16.10;91.50;;;;;;4982216;28;20115;-95
2022/07/04 11:10:21;;;;;;;2.78;0.55;;;16.30;91.70;;;;;;4999111;28;20080;-94
2022/07/04 11:12:53;;;;;;;4.35;0.60;;;16.60;91.50;;;;;;4999279;28;20049;-94
2022/07/04 11:15:25;;;;;;;3.08;0.80;;;17.00;90.50;;;;;;4998919;28;20112;-95
2022/07/04 11:17:52;;;;;;;2.65;0.60;;;17.20;90.00;;;;;;4999195;28;20034;-94
2022/07/04 11:20:19;;;;;;;1.48;0.40;;;17.60;89.70;;;;;;4986311;28;20026;-95
2022/07/04 11:22:45;;;;;;;3.15;1.08;;;17.90;89.10;;;;;;5016739;28;20121;-94
2022/07/04 11:25:13;;;;;;;0.82;0.47;;;18.00;87.20;;;;;;5010062;28;20030;-94
2022/07/04 11:27:39;;;;;;;2.30;0.50;;;18.00;85.50;;;;;;5002173;28;20010;-95
2022/07/04 11:30:06;;;;;;;1.45;0.73;;;17.80;83.80;;;;;;5002629;28;20046;-94
2022/07/04 11:32:34;;;;;;;2.33;0.75;;;17.60;83.80;;;;;;5002494;28;20025;-94
2022/07/04 11:35:00;;;;;;;0.73;0.40;;;17.50;84.90;;;;;;5035092;28;20053;-92
2022/07/04 11:37:26;;;;;;;2.72;0.82;;;17.30;84.40;;;;;;5000184;28;20033;-93
2022/07/04 11:39:53;;;;;;;3.60;0.85;;;17.20;84.50;;;;;;5000410;28;20117;-94
2022/07/04 11:45:07;;;;;;;2.53;0.70;;;16.80;85.30;;;;;;5014357;28;20045;-95
2022/07/04 11:47:35;;;;;;;2.05;0.80;;;16.70;86.50;;;;;;5013489;28;20018;-94
2022/07/04 11:50:06;;;;;;;2.30;0.43;;;16.60;87.60;;;;;;5012334;28;20096;-94
2022/07/04 11:52:37;;;;;;;;;;;16.50;89.00;;;;;;5018266;28;20060;-94
2022/07/04 11:55:08;;;;;;;9.60;0.93;;;16.40;90.10;;;;;;5000065;28;20181;-94
2022/07/04 11:57:38;;;;;;;2.05;0.43;;;16.30;90.60;;;;;;5002008;28;20050;-90
2022/07/04 12:00:18;;;;;;;1.65;0.70;;;16.30;91.00;;;;;;4987607;28;20061;-94
2022/07/04 12:02:47;;;;;;;4.05;0.77;;;16.40;91.30;;;;;;4997460;28;20470;-93
2022/07/04 12:05:14;;;;;;;1.17;0.65;;;16.60;91.30;;;;;;4999765;28;20041;-93
2022/07/04 12:07:46;;;;;;;4.32;1.10;;;16.60;90.80;;;;;;4999593;28;20026;-92
2022/07/04 12:10:23;;;;;;;3.35;0.77;;;16.60;90.80;;;;;;4998982;28;20145;-94
2022/07/04 12:12:59;;;;;;;3.33;1.80;;;16.70;90.70;;;;;;5000475;28;20026;-94
2022/07/04 12:15:35;;;;;;;3.00;1.25;;;16.80;90.60;;;;;;4986315;28;20439;-94
2022/07/04 12:18:05;;;;;;;6.25;0.80;;;16.80;90.70;;;;;;5016409;28;20061;-94
2022/07/04 12:20:31;;;;;;;2.25;0.90;;;16.90;90.80;;;;;;4983333;28;20091;-94
2022/07/04 12:23:02;;;;;;;2.60;0.73;;;17.00;90.60;;;;;;4975848;28;20022;-94
2022/07/04 12:25:32;;;;;;;1.95;0.70;;;17.00;90.30;;;;;;5016604;28;20029;-94
2022/07/04 12:28:03;;;;;;;3.92;1.00;;;17.10;90.00;;;;;;4999180;28;20026;-94
2022/07/04 12:30:32;;;;;;;3.05;0.98;;;17.00;89.60;;;;;;4983308;28;20031;-92
2022/07/04 12:33:04;;;;;;;2.05;0.80;;;17.10;89.80;;;;;;5000205;28;20076;-93
2022/07/04 12:35:50;;;;;;;3.17;1.02;;;17.00;89.20;;;;;;5018060;28;20073;-94
2022/07/04 12:38:22;;;;;;;1.05;0.70;;;17.00;89.60;;;;;;4999618;28;20022;-94
2022/07/04 12:40:54;;;;;;;2.92;0.80;;;16.90;90.00;;;;;;5000156;28;20176;-93
2022/07/04 12:43:22;;;;;;;1.98;0.60;;;16.90;90.20;;;;;;5018137;28;20029;-94
2022/07/04 12:45:55;;;;;;;2.15;0.60;;;16.80;90.50;;;;;;5002286;28;20040;-92
2022/07/04 12:48:28;;;;;;;4.57;0.93;;;16.70;90.40;;;;;;5000002;28;20026;-92
2022/07/04 12:51:08;;;;;;;5.63;0.70;;;16.70;90.50;;;;;;4997310;28;20045;-92
2022/07/04 12:53:39;;;;;;;0.90;0.60;;;16.70;90.60;;;;;;5015284;28;20475;-91
2022/07/04 12:56:06;;;;;;;2.92;0.70;;;16.80;90.60;;;;;;4997734;28;20069;-91
2022/07/04 12:58:32;;;;;;;2.05;0.63;;;16.90;90.00;;;;;;4998663;28;20026;-89
2022/07/04 13:00:57;;;;;;;3.80;0.60;;;17.00;88.60;;;;;;4998119;28;20060;-93
2022/07/04 13:03:23;;;;;;;3.90;0.70;;;17.10;87.70;;;;;;5015875;28;20048;-93
2022/07/04 13:05:49;;;;;;;3.80;0.50;;;17.10;87.30;;;;;;4998869;28;20232;-91